Time;durP1;ratioP1;P1;durP2;ratioP2;P2;SDS_P1;SDS_P2;PMS_P1;PMS_P2;Temp;Humidity;BMP_temperature;BMP_pressure;BME280_temperature;BME280_humidity;BME280_pressure;Samples;Min_cycle;Max_cycle;Signal;HPM_P1;HPM_P2
2022/03/06 00:02:23;;;;;;;94.15;31.20;;;;;;;0.19;100.00;102214.72;5223046;28;20067;-79
2022/03/06 00:04:54;;;;;;;101.00;31.17;;;;;;;0.16;100.00;102214.03;5222149;28;20047;-79
2022/03/06 00:07:24;;;;;;;91.45;29.73;;;;;;;0.12;100.00;102215.06;5223650;28;20108;-78
2022/03/06 00:09:55;;;;;;;85.40;29.70;;;;;;;0.06;100.00;102216.19;5223846;28;20082;-78
2022/03/06 00:12:25;;;;;;;94.18;30.15;;;;;;;0.05;100.00;102216.25;5223981;28;20057;-79
2022/03/06 00:14:56;;;;;;;92.35;31.20;;;;;;;0.03;100.00;102218.09;5223388;28;20017;-78
2022/03/06 00:17:26;;;;;;;93.57;30.48;;;;;;;0.01;100.00;102215.53;5224360;28;20503;-79
2022/03/06 00:19:57;;;;;;;81.78;27.98;;;;;;;-0.02;100.00;102220.94;5224360;28;20098;-79
2022/03/06 00:22:27;;;;;;;84.00;30.02;;;;;;;-0.05;100.00;102219.28;5226798;28;20112;-79
2022/03/06 00:24:59;;;;;;;92.75;29.30;;;;;;;-0.08;100.00;102229.09;5225265;28;20057;-78
2022/03/06 00:27:29;;;;;;;95.03;30.67;;;;;;;-0.08;100.00;102223.84;5219071;28;20021;-78
2022/03/06 00:30:00;;;;;;;86.65;29.40;;;;;;;-0.11;100.00;102218.66;5227796;28;20172;-79
2022/03/06 00:32:32;;;;;;;88.80;28.83;;;;;;;-0.10;100.00;102231.81;5225608;28;20480;-79
2022/03/06 00:35:02;;;;;;;92.65;29.80;;;;;;;-0.07;100.00;102229.03;5232028;28;20026;-79
2022/03/06 00:37:33;;;;;;;94.07;28.55;;;;;;;-0.09;100.00;102225.63;5218164;28;20025;-79
2022/03/06 00:40:06;;;;;;;85.75;29.48;;;;;;;-0.11;100.00;102235.34;5227259;28;20032;-78
2022/03/06 00:42:36;;;;;;;93.00;30.05;;;;;;;-0.14;100.00;102224.09;5227657;28;20060;-80
2022/03/06 00:45:07;;;;;;;88.70;28.92;;;;;;;-0.15;100.00;102222.34;5225502;28;20459;-78
2022/03/06 00:47:37;;;;;;;93.53;29.70;;;;;;;-0.17;100.00;102232.13;5227296;28;20078;-80
2022/03/06 00:50:09;;;;;;;90.78;32.20;;;;;;;-0.20;100.00;102233.13;5225932;28;20021;-79
2022/03/06 00:52:39;;;;;;;96.88;29.95;;;;;;;-0.22;100.00;102236.72;5230215;28;20063;-79
2022/03/06 00:55:10;;;;;;;94.80;30.45;;;;;;;-0.27;100.00;102235.13;5231137;28;20220;-78
2022/03/06 00:57:41;;;;;;;101.85;31.63;;;;;;;-0.30;100.00;102235.28;5228162;28;20124;-77
2022/03/06 01:00:12;;;;;;;92.35;30.63;;;;;;;-0.31;100.00;102238.81;5229817;28;20417;-78
2022/03/06 01:02:43;;;;;;;78.57;28.55;;;;;;;-0.34;100.00;102238.94;5227555;28;20072;-77
2022/03/06 01:05:13;;;;;;;85.22;28.95;;;;;;;-0.36;100.00;102243.41;5226225;28;20435;-77
2022/03/06 01:07:44;;;;;;;94.95;30.10;;;;;;;-0.39;100.00;102253.25;5226630;28;20036;-77
2022/03/06 01:10:14;;;;;;;92.53;29.15;;;;;;;-0.43;100.00;102257.78;5225673;28;20026;-76
2022/03/06 01:12:45;;;;;;;87.75;29.60;;;;;;;-0.47;100.00;102255.31;5226959;28;20033;-77
2022/03/06 01:15:16;;;;;;;84.15;28.70;;;;;;;-0.52;100.00;102263.41;5226014;28;20107;-77
2022/03/06 01:17:46;;;;;;;85.85;29.00;;;;;;;-0.58;100.00;102261.03;5231633;28;20032;-78
2022/03/06 01:20:17;;;;;;;83.07;28.73;;;;;;;-0.60;100.00;102262.88;5229804;28;20036;-77
2022/03/06 01:22:48;;;;;;;93.60;30.02;;;;;;;-0.64;100.00;102272.66;5226659;28;20020;-77
2022/03/06 01:25:19;;;;;;;91.75;29.02;;;;;;;-0.67;100.00;102267.50;5225849;28;20048;-77
2022/03/06 01:27:50;;;;;;;92.72;29.92;;;;;;;-0.71;100.00;102268.53;5226410;28;20065;-77
2022/03/06 01:30:22;;;;;;;86.57;28.42;;;;;;;-0.74;100.00;102263.41;5225854;28;20063;-77
2022/03/06 01:32:53;;;;;;;93.97;28.90;;;;;;;-0.73;100.00;102264.25;5226181;28;20021;-77
2022/03/06 01:35:23;;;;;;;83.35;27.58;;;;;;;-0.73;100.00;102280.06;5218384;28;20570;-77
2022/03/06 01:37:54;;;;;;;95.05;29.10;;;;;;;-0.73;100.00;102272.16;5224188;28;20081;-77
2022/03/06 01:40:24;;;;;;;93.63;31.20;;;;;;;-0.74;100.00;102268.66;5225980;28;20473;-77
2022/03/06 01:42:55;;;;;;;82.25;27.20;;;;;;;-0.74;100.00;102273.94;5224719;28;20020;-77
2022/03/06 01:45:25;;;;;;;85.22;29.67;;;;;;;-0.74;100.00;102273.09;5224195;28;20029;-77
2022/03/06 01:47:58;;;;;;;87.35;27.80;;;;;;;-0.74;100.00;102278.34;5226047;28;20025;-77
2022/03/06 01:50:32;;;;;;;88.00;28.88;;;;;;;-0.77;100.00;102275.81;5226209;28;20103;-77
2022/03/06 01:53:06;;;;;;;79.80;27.70;;;;;;;-0.79;100.00;102283.78;5225012;28;20144;-77
2022/03/06 01:55:37;;;;;;;80.72;28.42;;;;;;;-0.82;100.00;102273.34;5225011;28;20846;-77
2022/03/06 01:58:09;;;;;;;90.10;30.27;;;;;;;-0.82;100.00;102281.25;5226081;28;20028;-77
2022/03/06 02:00:44;;;;;;;88.38;28.20;;;;;;;-0.84;100.00;102278.69;5226141;28;20032;-77
2022/03/06 02:03:16;;;;;;;;;;;;;;;-0.86;100.00;102283.16;5227548;28;20028;-77
2022/03/06 02:05:48;;;;;;;79.32;26.65;;;;;;;-0.86;100.00;102283.16;5225463;28;19913;-77
2022/03/06 02:08:30;;;;;;;84.35;27.70;;;;;;;-0.89;100.00;102291.19;5227547;28;20025;-78
2022/03/06 02:11:01;;;;;;;87.28;28.27;;;;;;;-0.91;100.00;102292.13;5225771;28;20071;-77
2022/03/06 02:13:32;;;;;;;80.15;25.55;;;;;;;-0.94;100.00;102287.88;5226303;28;20369;-77
2022/03/06 02:16:02;;;;;;;86.95;26.98;;;;;;;-0.95;100.00;102290.56;5225325;28;20078;-78
2022/03/06 02:18:33;;;;;;;96.18;27.70;;;;;;;-0.97;100.00;102285.31;5225962;28;20060;-77
2022/03/06 02:21:22;;;;;;;76.60;27.38;;;;;;;-0.98;100.00;102293.31;5229018;28;20021;-79
2022/03/06 02:24:06;;;;;;;81.03;27.92;;;;;;;-1.00;100.00;102290.72;5230636;28;20400;-80
2022/03/06 02:26:38;;;;;;;83.72;26.67;;;;;;;-1.02;100.00;102291.69;5230156;28;20025;-80
2022/03/06 02:29:10;;;;;;;71.07;26.08;;;;;;;-1.05;100.00;102287.41;5229787;28;20512;-80
2022/03/06 02:31:40;;;;;;;79.95;26.50;;;;;;;-1.05;100.00;102300.59;5225968;28;20017;-79
2022/03/06 02:34:10;;;;;;;74.80;27.20;;;;;;;-1.06;100.00;102293.56;5226528;28;20073;-79
2022/03/06 02:36:41;;;;;;;80.75;26.60;;;;;;;-1.06;100.00;102290.94;5218447;28;20154;-79
2022/03/06 02:39:11;;;;;;;82.25;25.38;;;;;;;-1.05;100.00;102290.03;5240612;28;20029;-79
2022/03/06 02:41:42;;;;;;;81.60;26.95;;;;;;;-1.06;100.00;102293.56;5233470;28;20025;-79
2022/03/06 02:44:13;;;;;;;78.32;25.70;;;;;;;-1.09;100.00;102299.81;5232413;28;20147;-80
2022/03/06 02:46:45;;;;;;;83.80;25.42;;;;;;;-1.11;100.00;102293.72;5233550;28;20036;-79
2022/03/06 02:49:17;;;;;;;82.65;25.17;;;;;;;-1.11;100.00;102303.41;5234308;28;20032;-79
2022/03/06 02:51:49;;;;;;;75.40;24.80;;;;;;;-1.15;100.00;102299.19;5234157;28;20055;-79
2022/03/06 02:54:20;;;;;;;71.47;25.25;;;;;;;-1.18;100.00;102299.28;5233894;28;20029;-79
2022/03/06 02:56:51;;;;;;;78.57;26.48;;;;;;;-1.18;100.00;102299.28;5234602;28;20029;-80
2022/03/06 02:59:22;;;;;;;78.07;25.05;;;;;;;-1.22;100.00;102300.31;5235135;28;20021;-80
2022/03/06 03:01:54;;;;;;;78.63;26.48;;;;;;;-1.22;100.00;102292.41;5235004;28;20033;-80
2022/03/06 03:04:25;;;;;;;77.97;26.88;;;;;;;-1.25;100.00;102295.19;5216453;28;20392;-80
2022/03/06 03:06:55;;;;;;;75.32;23.63;;;;;;;-1.26;100.00;102298.69;5233472;28;20034;-79
2022/03/06 03:09:26;;;;;;;69.05;24.38;;;;;;;-1.29;100.00;102299.69;5231299;28;20021;-79
2022/03/06 03:11:57;;;;;;;79.32;27.40;;;;;;;-1.31;100.00;102298.84;5229976;28;20082;-79
2022/03/06 03:14:36;;;;;;;77.15;23.52;;;;;;;-1.31;100.00;102298.84;5227845;28;20275;-79
2022/03/06 03:17:06;;;;;;;75.93;25.02;;;;;;;-1.33;100.00;102296.28;5226515;28;20027;-80
2022/03/06 03:19:37;;;;;;;75.00;24.73;;;;;;;-1.33;100.00;102298.91;5227550;28;20025;-80
2022/03/06 03:22:07;;;;;;;72.07;24.80;;;;;;;-1.33;100.00;102301.56;5227505;28;20055;-80
2022/03/06 03:24:37;;;;;;;81.00;24.33;;;;;;;-1.31;100.00;102293.59;5227401;28;20025;-80
2022/03/06 03:27:08;;;;;;;71.13;24.52;;;;;;;-1.31;100.00;102302.38;5226101;28;20096;-80
2022/03/06 03:29:38;;;;;;;77.63;24.15;;;;;;;-1.32;100.00;102307.69;5227248;28;20060;-80
2022/03/06 03:32:09;;;;;;;73.78;23.10;;;;;;;-1.34;100.00;102299.00;5225994;28;20025;-80
2022/03/06 03:34:40;;;;;;;70.90;23.90;;;;;;;-1.36;100.00;102301.66;5224912;28;20047;-80
2022/03/06 03:37:10;;;;;;;74.25;25.30;;;;;;;-1.36;100.00;102304.28;5218151;28;20021;-80
2022/03/06 03:39:41;;;;;;;75.47;23.80;;;;;;;-1.37;100.00;102302.56;5226894;28;20491;-80
2022/03/06 03:42:11;;;;;;;69.32;23.13;;;;;;;-1.38;100.00;102306.13;5225800;28;20032;-79
2022/03/06 03:44:42;;;;;;;68.45;23.17;;;;;;;-1.39;100.00;102301.78;5226625;28;20415;-79
2022/03/06 03:47:12;;;;;;;71.60;23.13;;;;;;;-1.36;100.00;102311.31;5226697;28;20017;-79
2022/03/06 03:49:43;;;;;;;71.65;23.05;;;;;;;-1.41;100.00;102306.22;5227393;28;20029;-78
2022/03/06 03:52:13;;;;;;;70.78;22.02;;;;;;;-1.43;100.00;102313.31;5224173;28;20388;-77
2022/03/06 03:54:44;;;;;;;70.90;21.65;;;;;;;-1.45;100.00;102311.69;5226866;28;20112;-78
2022/03/06 03:57:15;;;;;;;65.78;22.95;;;;;;;-1.45;100.00;102317.78;5230836;28;20483;-78
2022/03/06 03:59:45;;;;;;;72.97;22.83;;;;;;;-1.49;100.00;102317.94;5230998;28;20043;-78
2022/03/06 04:02:16;;;;;;;70.03;22.95;;;;;;;-1.48;100.00;102320.53;5230556;28;20045;-78
2022/03/06 04:04:47;;;;;;;68.50;22.88;;;;;;;-1.51;100.00;102322.38;5229183;28;20060;-77
2022/03/06 04:07:17;;;;;;;72.95;24.42;;;;;;;-1.55;100.00;102326.91;5230892;28;20496;-78
2022/03/06 04:09:47;;;;;;;73.20;23.45;;;;;;;-1.57;100.00;102321.69;5230236;28;20025;-78
2022/03/06 04:12:18;;;;;;;78.53;24.90;;;;;;;-1.58;100.00;102327.88;5230364;28;20114;-78
2022/03/06 04:14:49;;;;;;;69.03;23.85;;;;;;;-1.59;100.00;102327.94;5228338;28;20025;-78
2022/03/06 04:17:19;;;;;;;71.78;22.50;;;;;;;-1.60;100.00;102331.47;5230327;28;20638;-78
2022/03/06 04:19:50;;;;;;;68.78;21.83;;;;;;;-1.62;100.00;102333.28;5229341;28;20111;-78
2022/03/06 04:22:20;;;;;;;64.70;22.02;;;;;;;-1.65;100.00;102334.25;5228590;28;20136;-77
2022/03/06 04:24:51;;;;;;;69.40;23.25;;;;;;;-1.66;100.00;102336.94;5229291;28;20029;-77
2022/03/06 04:27:21;;;;;;;73.88;23.23;;;;;;;-1.70;100.00;102346.72;5228905;28;20025;-77
2022/03/06 04:29:52;;;;;;;67.85;22.70;;;;;;;-1.72;100.00;102348.53;5228241;28;20026;-77
2022/03/06 04:32:23;;;;;;;64.82;22.92;;;;;;;-1.73;100.00;102356.47;5217693;28;20535;-77
2022/03/06 04:34:53;;;;;;;64.60;22.10;;;;;;;-1.75;100.00;102366.19;5223358;28;20104;-77
2022/03/06 04:37:24;;;;;;;63.58;21.27;;;;;;;-1.80;100.00;102363.72;5222709;28;20127;-77
2022/03/06 04:39:54;;;;;;;64.07;22.40;;;;;;;-1.81;100.00;102367.25;5227909;28;20392;-77
2022/03/06 04:42:25;;;;;;;66.53;22.70;;;;;;;-1.85;100.00;102368.28;5227904;28;20029;-78
2022/03/06 04:44:55;;;;;;;62.38;21.10;;;;;;;-1.85;100.00;102371.75;5226555;28;20029;-77
2022/03/06 04:47:26;;;;;;;71.78;23.50;;;;;;;-1.86;100.00;102369.16;5227663;28;20061;-77
2022/03/06 04:49:57;;;;;;;67.40;23.38;;;;;;;-1.84;100.00;102381.38;5227689;28;20086;-78
2022/03/06 04:52:28;;;;;;;61.38;21.33;;;;;;;-1.83;100.00;102384.84;5227891;28;20506;-78
2022/03/06 04:54:58;;;;;;;69.75;21.83;;;;;;;-1.83;100.00;102395.38;5226189;28;20047;-78
2022/03/06 04:57:29;;;;;;;64.47;22.67;;;;;;;-1.84;100.00;102386.63;5227258;28;20025;-79
2022/03/06 04:59:59;;;;;;;63.95;22.02;;;;;;;-1.80;100.00;102390.03;5228697;28;20033;-80
2022/03/06 05:02:30;;;;;;;69.30;22.95;;;;;;;-1.83;100.00;102392.75;5211042;28;20028;-79
2022/03/06 05:05:00;;;;;;;66.28;22.08;;;;;;;-1.90;100.00;102392.09;5226688;28;20031;-78
2022/03/06 05:07:30;;;;;;;69.93;22.10;;;;;;;-1.91;100.00;102395.63;5225429;28;20029;-77
2022/03/06 05:10:01;;;;;;;66.57;21.88;;;;;;;-1.91;100.00;102408.78;5227105;28;20036;-77
2022/03/06 05:12:32;;;;;;;70.20;22.08;;;;;;;-1.91;100.00;102400.91;5226950;28;20028;-77
2022/03/06 05:15:03;;;;;;;66.90;20.63;;;;;;;-1.89;100.00;102396.44;5226399;28;20027;-76
2022/03/06 05:17:34;;;;;;;62.38;20.90;;;;;;;-1.89;100.00;102395.56;5226558;28;20024;-77
2022/03/06 05:20:06;;;;;;;61.92;20.92;;;;;;;-1.84;100.00;102402.41;5226554;28;20202;-77
2022/03/06 05:22:37;;;;;;;63.97;21.83;;;;;;;-1.85;100.00;102408.59;5225558;28;20388;-77
2022/03/06 05:25:09;;;;;;;65.68;20.73;;;;;;;-1.87;100.00;102406.91;5225991;28;20029;-77
2022/03/06 05:27:40;;;;;;;74.63;22.77;;;;;;;-1.89;100.00;102404.31;5226464;28;20024;-77
2022/03/06 05:30:11;;;;;;;67.43;21.83;;;;;;;-1.89;100.00;102403.47;5226174;28;20117;-76
2022/03/06 05:32:42;;;;;;;69.35;22.48;;;;;;;-1.87;100.00;102409.53;5226297;28;20032;-76
2022/03/06 05:35:12;;;;;;;59.58;21.25;;;;;;;-1.87;100.00;102409.53;5219302;28;20539;-76
2022/03/06 05:37:43;;;;;;;67.03;22.55;;;;;;;-1.83;100.00;102411.16;5222048;28;20083;-76
2022/03/06 05:40:13;;;;;;;63.15;21.05;;;;;;;-1.85;100.00;102419.13;5226242;28;20025;-76
2022/03/06 05:42:44;;;;;;;65.80;21.40;;;;;;;-1.82;100.00;102426.88;5226094;28;20395;-76
2022/03/06 05:45:14;;;;;;;65.57;22.10;;;;;;;-1.83;100.00;102434.84;5225749;28;20125;-77
2022/03/06 05:47:45;;;;;;;63.15;21.10;;;;;;;-1.86;100.00;102438.44;5226368;28;20020;-76
2022/03/06 05:50:15;;;;;;;73.40;22.90;;;;;;;-1.89;100.00;102433.25;5225862;28;20029;-77
2022/03/06 05:52:48;;;;;;;69.93;21.20;;;;;;;-1.89;100.00;102441.16;5226136;28;20388;-77
2022/03/06 05:55:19;;;;;;;73.07;21.85;;;;;;;-1.92;100.00;102443.88;5225405;28;20052;-77
2022/03/06 05:57:49;;;;;;;75.25;22.95;;;;;;;-1.97;100.00;102445.78;5227092;28;20067;-76
2022/03/06 06:00:20;;;;;;;71.03;23.92;;;;;;;-2.00;100.00;102448.53;5225703;28;20115;-76
2022/03/06 06:02:50;;;;;;;68.72;23.27;;;;;;;-2.00;100.00;102453.78;5225866;28;20504;-76
2022/03/06 06:05:22;;;;;;;66.10;23.45;;;;;;;-2.02;100.00;102458.22;5225390;28;20037;-76
2022/03/06 06:07:52;;;;;;;64.43;21.52;;;;;;;-2.04;100.00;102469.69;5226147;28;20020;-77
2022/03/06 06:10:23;;;;;;;62.15;21.17;;;;;;;-2.09;100.00;102472.47;5224588;28;20391;-77
2022/03/06 06:12:53;;;;;;;62.53;21.55;;;;;;;-2.11;100.00;102463.75;5228857;28;20025;-80
2022/03/06 06:15:24;;;;;;;71.07;22.67;;;;;;;-2.09;100.00;102462.81;5227121;28;20406;-78
2022/03/06 06:17:55;;;;;;;59.30;22.25;;;;;;;-2.09;100.00;102469.84;5224410;28;20431;-77
2022/03/06 06:20:25;;;;;;;62.97;21.10;;;;;;;-2.09;100.00;102470.69;5225447;28;20028;-76
2022/03/06 06:22:55;;;;;;;66.00;20.92;;;;;;;-2.08;100.00;102471.53;5224504;28;20104;-76
2022/03/06 06:25:26;;;;;;;59.25;20.45;;;;;;;-2.10;100.00;102476.88;5224873;28;20192;-77
2022/03/06 06:27:56;;;;;;;61.03;20.55;;;;;;;-2.10;100.00;102481.25;5225512;28;20048;-76
2022/03/06 06:30:27;;;;;;;62.70;21.95;;;;;;;-2.08;100.00;102489.97;5224949;28;20062;-76
2022/03/06 06:32:57;;;;;;;65.28;21.08;;;;;;;-2.06;100.00;102485.50;5214641;28;20104;-75
2022/03/06 06:35:28;;;;;;;58.00;20.25;;;;;;;-2.06;100.00;102479.38;5216761;28;20511;-76
2022/03/06 06:37:58;;;;;;;60.13;21.60;;;;;;;-2.04;100.00;102486.34;5224453;28;20025;-78
2022/03/06 06:40:29;;;;;;;64.50;22.10;;;;;;;-1.98;100.00;102486.16;5226096;28;20078;-78
2022/03/06 06:43:00;;;;;;;58.63;20.83;;;;;;;-1.93;100.00;102494.75;5213556;28;20048;-79
2022/03/06 06:45:30;;;;;;;57.55;20.52;;;;;;;-1.81;100.00;102498.78;5224792;28;20032;-76
2022/03/06 06:48:01;;;;;;;54.92;20.17;;;;;;;-1.68;100.00;102500.13;5225470;28;20463;-75
2022/03/06 06:50:33;;;;;;;57.33;19.10;;;;;;;-1.50;100.00;102504.00;5219518;28;20041;-78
2022/03/06 06:53:03;;;;;;;56.00;20.92;;;;;;;-1.35;100.00;102500.88;5218171;28;20112;-77
2022/03/06 06:55:35;;;;;;;62.28;21.83;;;;;;;-1.18;100.00;102509.97;5219169;28;20104;-77
2022/03/06 06:58:05;;;;;;;64.57;21.40;;;;;;;-1.02;100.00;102505.91;5223421;28;20396;-76
2022/03/06 07:00:36;;;;;;;60.67;20.42;;;;;;;-0.84;100.00;102507.94;5223196;28;20029;-76
2022/03/06 07:03:07;;;;;;;55.15;20.13;;;;;;;-0.55;100.00;102508.72;5221729;28;20025;-76
2022/03/06 07:05:37;;;;;;;47.28;20.63;;;;;;;-0.36;100.00;102511.53;5222669;28;20024;-76
2022/03/06 07:08:08;;;;;;;52.10;20.50;;;;;;;-0.15;100.00;102509.88;5223185;28;20036;-77
2022/03/06 07:10:38;;;;;;;50.58;20.80;;;;;;;0.02;100.00;102506.63;5223364;28;20020;-77
2022/03/06 07:13:08;;;;;;;49.67;19.27;;;;;;;0.32;100.00;102509.88;5223301;28;20397;-77
2022/03/06 07:15:39;;;;;;;45.83;20.40;;;;;;;0.56;100.00;102508.91;5223575;28;20054;-78
2022/03/06 07:18:09;;;;;;;39.90;18.05;;;;;;;0.89;100.00;102505.81;5223983;28;20107;-76
2022/03/06 07:20:40;;;;;;;45.70;18.67;;;;;;;1.12;100.00;102513.66;5221774;28;20048;-76
2022/03/06 07:23:11;;;;;;;42.78;19.92;;;;;;;1.41;100.00;102520.34;5223351;28;20088;-76
2022/03/06 07:25:41;;;;;;;49.17;19.13;;;;;;;1.73;100.00;102523.34;5222529;28;20416;-76
2022/03/06 07:28:12;;;;;;;42.58;18.63;;;;;;;2.06;100.00;102527.13;5222605;28;20057;-76
2022/03/06 07:30:43;;;;;;;41.20;18.75;;;;;;;2.60;100.00;102530.75;5229750;28;20554;-76
2022/03/06 07:33:14;;;;;;;40.67;18.08;;;;;;;2.80;100.00;102531.59;5218583;28;20488;-76
2022/03/06 07:35:44;;;;;;;39.67;18.35;;;;;;;2.95;100.00;102536.13;5220151;28;20040;-76
2022/03/06 07:38:14;;;;;;;40.05;18.05;;;;;;;3.25;100.00;102531.09;5230043;28;20021;-76
2022/03/06 07:40:45;;;;;;;42.20;18.17;;;;;;;3.23;100.00;102540.94;5227320;28;20032;-76
2022/03/06 07:43:15;;;;;;;41.28;17.85;;;;;;;3.30;100.00;102539.66;5228181;28;20029;-76
2022/03/06 07:45:46;;;;;;;37.50;17.45;;;;;;;3.33;100.00;102538.66;5228842;28;20033;-76
2022/03/06 07:48:17;;;;;;;36.97;17.38;;;;;;;3.44;100.00;102544.28;5229756;28;20020;-76
2022/03/06 07:50:48;;;;;;;37.92;18.85;;;;;;;3.45;100.00;102550.44;5229542;28;20511;-75
2022/03/06 07:53:18;;;;;;;34.75;17.10;;;;;;;3.43;100.00;102553.19;5229626;28;20036;-76
2022/03/06 07:55:49;;;;;;;37.10;18.13;;;;;;;3.59;100.00;102548.78;5231314;28;20037;-78
2022/03/06 07:58:19;;;;;;;37.83;17.55;;;;;;;3.91;100.00;102554.19;5232917;28;20713;-77
2022/03/06 08:00:50;;;;;;;35.28;17.30;;;;;;;4.04;100.00;102555.28;5231545;28;20043;-77
2022/03/06 08:03:20;;;;;;;38.60;19.33;;;;;;;3.84;100.00;102558.97;5230452;28;20075;-76
2022/03/06 08:05:51;;;;;;;38.95;18.40;;;;;;;4.06;100.00;102558.69;5229523;28;20029;-76
2022/03/06 08:08:22;;;;;;;37.63;17.48;;;;;;;4.12;100.00;102565.50;5230997;28;20053;-78
2022/03/06 08:10:52;;;;;;;36.55;18.20;;;;;;;4.19;100.00;102568.66;5230003;28;20436;-76
2022/03/06 08:13:23;;;;;;;39.92;18.02;;;;;;;4.43;100.00;102574.44;5229775;28;20760;-75
2022/03/06 08:15:53;;;;;;;37.47;18.50;;;;;;;4.36;100.00;102572.09;5229193;28;20582;-76
2022/03/06 08:18:24;;;;;;;37.03;18.33;;;;;;;4.73;100.00;102572.75;5228928;28;20391;-76
2022/03/06 08:20:54;;;;;;;42.60;17.67;;;;;;;4.72;100.00;102573.69;5229651;28;20082;-76
2022/03/06 08:23:25;;;;;;;37.42;17.88;;;;;;;4.80;100.00;102575.91;5229456;28;20037;-75
2022/03/06 08:25:56;;;;;;;41.60;18.48;;;;;;;5.01;100.00;102571.16;5229091;28;20021;-75
2022/03/06 08:28:26;;;;;;;37.25;19.27;;;;;;;5.10;100.00;102578.63;5229842;28;20056;-75
2022/03/06 08:30:57;;;;;;;40.22;17.98;;;;;;;5.04;100.00;102578.97;5229557;28;20112;-75
2022/03/06 08:33:27;;;;;;;33.40;16.77;;;;;;;5.03;100.00;102587.91;5217762;28;20033;-75
2022/03/06 08:35:58;;;;;;;37.17;18.27;;;;;;;5.11;100.00;102590.97;5219612;28;20028;-75
2022/03/06 08:38:29;;;;;;;32.70;17.25;;;;;;;5.22;100.00;102585.91;5229896;28;20074;-75
2022/03/06 08:40:59;;;;;;;31.65;17.23;;;;;;;5.12;100.00;102590.00;5226774;28;20029;-75
2022/03/06 08:43:30;;;;;;;37.75;17.73;;;;;;;5.26;100.00;102583.91;5226113;28;20035;-75
2022/03/06 08:46:03;;;;;;;38.40;18.90;;;;;;;5.46;100.00;102591.56;5225428;28;20040;-75
2022/03/06 08:48:36;;;;;;;37.53;17.23;;;;;;;5.57;100.00;102593.59;5225631;28;20024;-75
2022/03/06 08:51:07;;;;;;;33.83;17.90;;;;;;;5.84;100.00;102588.44;5226008;28;20484;-75
2022/03/06 08:53:37;;;;;;;41.72;18.80;;;;;;;5.95;100.00;102594.00;5225985;28;20036;-75
2022/03/06 08:56:07;;;;;;;37.40;18.88;;;;;;;6.05;100.00;102599.63;5225573;28;20024;-74
2022/03/06 08:58:38;;;;;;;38.30;18.50;;;;;;;6.14;100.00;102607.06;5226192;28;20796;-75
2022/03/06 09:01:08;;;;;;;34.08;17.23;;;;;;;6.07;100.00;102606.56;5225829;28;20055;-75
2022/03/06 09:03:39;;;;;;;37.38;17.65;;;;;;;6.24;100.00;102602.88;5226125;28;20032;-75
2022/03/06 09:06:09;;;;;;;33.20;16.95;;;;;;;6.16;100.00;102610.47;5224966;28;20117;-75
2022/03/06 09:08:40;;;;;;;33.85;17.45;;;;;;;6.34;100.00;102605.81;5226044;28;20024;-75
2022/03/06 09:11:10;;;;;;;34.13;17.42;;;;;;;6.64;100.00;102608.34;5225579;28;20033;-77
2022/03/06 09:13:41;;;;;;;32.92;16.30;;;;;;;6.67;100.00;102608.16;5225502;28;20033;-77
2022/03/06 09:16:12;;;;;;;31.77;17.13;;;;;;;6.87;100.00;102609.53;5225171;28;20040;-78
2022/03/06 09:18:44;;;;;;;35.00;17.45;;;;;;;6.64;100.00;102611.03;5226002;28;20017;-77
2022/03/06 09:21:15;;;;;;;39.17;17.80;;;;;;;6.73;100.00;102613.13;5225181;28;20107;-77
2022/03/06 09:23:45;;;;;;;31.77;16.90;;;;;;;7.08;100.00;102612.59;5225935;28;20040;-77
2022/03/06 09:26:15;;;;;;;31.75;16.58;;;;;;;7.14;100.00;102614.91;5225173;28;20403;-77
2022/03/06 09:28:46;;;;;;;30.38;17.17;;;;;;;7.13;100.00;102610.50;5225937;28;20472;-77
2022/03/06 09:31:17;;;;;;;33.45;17.02;;;;;;;7.40;100.00;102611.34;5224217;28;20028;-78
2022/03/06 09:33:47;;;;;;;32.75;17.27;;;;;;;7.53;100.00;102603.38;5227282;28;20421;-78
2022/03/06 09:36:18;;;;;;;33.33;17.23;;;;;;;7.50;100.00;102614.25;5214061;28;20021;-78
2022/03/06 09:38:49;;;;;;;33.00;17.30;;;;;;;7.98;100.00;102610.06;5226138;28;20021;-77
2022/03/06 09:41:25;;;;;;;35.08;16.48;;;;;;;8.09;100.00;102608.47;5225949;28;20025;-78
2022/03/06 09:43:56;;;;;;;28.17;15.93;;;;;;;8.02;100.00;102606.19;5226035;28;20029;-78
2022/03/06 09:46:27;;;;;;;35.40;17.25;;;;;;;8.26;100.00;102610.78;5223906;28;20025;-78
2022/03/06 09:48:57;;;;;;;31.75;16.65;;;;;;;7.89;100.00;102605.34;5226437;28;20043;-78
2022/03/06 09:51:33;;;;;;;34.72;16.98;;;;;;;8.19;100.00;102609.53;5225845;28;20132;-78
2022/03/06 09:54:05;;;;;;;32.60;17.60;;;;;;;8.35;100.00;102606.63;5225346;28;20108;-78
2022/03/06 09:56:35;;;;;;;32.17;17.35;;;;;;;8.22;100.00;102603.94;5224978;28;20045;-76
2022/03/06 09:59:06;;;;;;;31.23;16.60;;;;;;;8.19;97.86;102604.19;5227278;28;20083;-76
2022/03/06 10:01:37;;;;;;;35.08;17.38;;;;;;;7.66;99.84;102603.38;5225327;28;20017;-78
2022/03/06 10:04:26;;;;;;;30.65;16.17;;;;;;;7.98;100.00;102606.50;5225052;28;20020;-78
2022/03/06 10:06:59;;;;;;;28.75;16.13;;;;;;;7.98;100.00;102603.84;5226529;28;20051;-78
2022/03/06 10:09:31;;;;;;;34.88;15.05;;;;;;;8.10;100.00;102607.50;5224307;28;20025;-78
2022/03/06 10:12:02;;;;;;;30.65;16.13;;;;;;;8.36;100.00;102611.00;5227058;28;20112;-77
2022/03/06 10:14:35;;;;;;;30.23;16.20;;;;;;;8.50;100.00;102603.72;5225388;28;20136;-78
2022/03/06 10:17:20;;;;;;;28.92;15.13;;;;;;;8.62;98.34;102606.47;5226026;28;20029;-78
2022/03/06 10:19:53;;;;;;;26.70;14.63;;;;;;;8.44;90.81;102612.22;5226799;28;20044;-78
2022/03/06 10:22:26;;;;;;;31.50;15.45;;;;;;;8.22;86.88;102601.28;5225500;28;20055;-78
2022/03/06 10:25:16;;;;;;;25.27;14.30;;;;;;;7.92;97.59;102598.91;5225691;28;20021;-78
2022/03/06 10:28:06;;;;;;;28.85;14.23;;;;;;;7.66;93.75;102609.59;5227087;28;20033;-78
2022/03/06 10:30:41;;;;;;;24.75;13.77;;;;;;;7.67;95.90;102603.28;5225342;28;20025;-78
2022/03/06 10:33:27;;;;;;;28.65;14.18;;;;;;;7.45;90.83;102614.56;5215829;28;20039;-77
2022/03/06 10:35:58;;;;;;;;;;;;;;;7.11;98.21;102612.41;5216101;28;20013;-78
2022/03/06 10:38:31;;;;;;;31.15;13.80;;;;;;;7.32;100.00;102610.13;5225188;28;20002;-78
2022/03/06 10:41:12;;;;;;;26.58;13.00;;;;;;;7.49;100.00;102615.22;5224985;28;20041;-78
2022/03/06 10:43:43;;;;;;;23.25;13.10;;;;;;;7.36;100.00;102609.84;5225245;28;20488;-78
2022/03/06 10:46:17;;;;;;;24.85;13.25;;;;;;;7.55;97.44;102613.94;5224863;28;20035;-78
2022/03/06 10:49:12;;;;;;;27.10;14.05;;;;;;;7.81;94.28;102612.19;5227513;28;20131;-77
2022/03/06 10:51:45;;;;;;;23.08;13.15;;;;;;;7.82;94.22;102608.53;5224939;28;20032;-77
2022/03/06 10:54:16;;;;;;;25.75;12.88;;;;;;;7.94;95.25;102597.88;5224359;28;20099;-77
2022/03/06 10:56:50;;;;;;;21.02;12.50;;;;;;;7.79;87.05;102607.78;5223217;28;20047;-77
2022/03/06 10:59:24;;;;;;;27.25;13.35;;;;;;;7.72;93.90;102609.16;5224331;28;20039;-78
2022/03/06 11:01:55;;;;;;;24.15;13.70;;;;;;;8.01;98.29;102611.66;5224660;28;20083;-77
2022/03/06 11:04:26;;;;;;;24.77;13.18;;;;;;;8.17;91.99;102612.28;5226668;28;20459;-79
2022/03/06 11:06:56;;;;;;;25.33;12.57;;;;;;;7.93;92.37;102601.50;5228023;28;20025;-80
2022/03/06 11:09:27;;;;;;;26.63;13.57;;;;;;;7.61;84.65;102595.69;5212101;28;20082;-78
2022/03/06 11:11:58;;;;;;;24.70;13.50;;;;;;;7.35;90.39;102594.78;5229922;28;20111;-80
2022/03/06 11:14:30;;;;;;;25.55;12.73;;;;;;;7.41;92.02;102605.03;5228060;28;20146;-80
2022/03/06 11:17:01;;;;;;;25.08;12.40;;;;;;;7.03;87.69;102612.06;5226418;28;20108;-78
2022/03/06 11:19:34;;;;;;;24.02;13.20;;;;;;;6.96;91.02;102600.94;5228830;28;20081;-77
2022/03/06 11:22:18;;;;;;;29.60;13.57;;;;;;;7.27;95.37;102592.59;5228179;28;20032;-78
2022/03/06 11:24:55;;;;;;;23.95;13.10;;;;;;;7.82;100.00;102596.03;5228339;28;20056;-77
2022/03/06 11:27:45;;;;;;;21.08;11.93;;;;;;;8.21;94.92;102596.91;5228304;28;20742;-78